Unbenanntes Dokument
Flugplatz Bielefeld Platzwetter

 

Aktuelles Platzwetter am Flugplatz Bielefeld EDLI

21.08.19 ,00:27 Uhr

METAR EDLI 210026Z 10001KT 1700 BR 11/11 Q1027

 

Windwerte

 

Wolkenuntergrenzen

Wind aktuell:090 ° mit 1 kt
Wind 10 min Extrem:
60 ° bis 120 ° mit 1 kt bis 1 kt
Seitenwindkomponente: -0.3 kt
Wolkengrenze 1:
Wolkengrenze 2:
Wolkengrenze 3:

Webcam

Temperatur

       

Sichtweite:

4.100 Meter

11.3 °C
Taupunkt: 11.2 °C
Luftfeuchtigkeit: 99 %

Luftdruck:

QNH: 1027 hPa (30.33 in Hg)
QFE: 1010 hPa (29.83 in Hg)

Diese Daten werden automatisch ermittelt bzw. übertragen und sind nicht geprüft. Für die Richtigkeit wird daher keine Gewähr übernommen. Sie ersetzen im übrigen nicht die Flugwetterberatung. Alle Zeitangaben beziehen sich auf UTC. Die Seite wird einmal die Minute aktualisiert! Sollten Sie ein ältere Seite haben, so drücken Sie bitte auf den Reload Button Ihres Browsers!